• Join FlightAware (Why Join?)
  • Login
  • US Flag 
11:58PM EST


 

Airport Tracker/Info


-or-


 

Live Flight TrackerFlight Track Log ✈ N535GH ✈ 20-Apr-2013 ✈ MMTO / TLC - KNYL

Flight Track Log - Related Links

Times and Time Zones

All times are in EDT time to prevent confusion due to time zone crossing. See the N535GH flight status page for this flight to view local times or setup timezone preferences in your user account.

Time Position Orientation Groundspeed Altitude Reporting Facility
EDT Latitude Longitude Course Direction KTS MPH feet Rate Location/Type
06:47PM 32.1551 -113.9273 318° Northwest  Level Estimated
06:48PM 32.2097 -114.0006 311° West  Level Estimated
06:49PM 32.2642 -114.0739 311° West  Level Estimated
06:50PM 32.3187 -114.1474 311° West  Level Estimated
06:51PM 32.3732 -114.2209 311° West  Level Estimated
06:52PM 32.4276 -114.2945 311° West  Level Estimated
06:53PM 32.4819 -114.3682 311° West  Level Estimated
06:54PM 32.5363 -114.4420 311° West  Level Estimated
06:55PM 32.5906 -114.5159 311° West  Level Estimated
06:56PM 32.6448 -114.5899 311° West  Level Estimated
06:57PM 32.6566 -114.6060 311° West  Level Estimated
06:58PM 32.6566 -114.6060 331° Northwest  Level Estimated
06:59PM 32.6566 -114.6060 331° Northwest  Level Estimated
07:00PM 32.6566 -114.6060 331° Northwest  Level Estimated
07:00PM 32.6475 -115.2653 331° Northwest 312 359 13,900  Level Los Angeles Center
07:00PM 32.6936 -115.2736 351° North 312 359 14,000  Climbing Los Angeles Center
07:01PM 32.6566 -114.6060 331° Northwest  Level Estimated
07:01PM 32.7272 -115.2428 38° Northeast 323 372 13,900  Level Los Angeles Center
07:01PM 32.7519 -115.1850 63° Northeast 335 386 13,300 -1,380 Descending Los Angeles Center
07:02PM 32.6566 -114.6060 331° Northwest  Level Estimated
07:02PM 32.7594 -115.1375 79° East 340 391 12,500  Level Los Angeles Center
07:02PM 32.7572 -115.0775 93° East 339 390 11,300 -1,980 Descending Los Angeles Center
07:03PM 32.6566 -114.6060 331° Northwest  Level Estimated
07:03PM 32.7578 -115.0292 89° East 330 380 10,500  Level Los Angeles Center
07:03PM 32.7603 -114.9575 88° East 317 365 9,000 -1,980 Descending Los Angeles Center
07:04PM 32.6566 -114.6060 331° Northwest  Level Estimated
07:04PM 32.7603 -114.9278 90° East 313 360 8,500  Level Los Angeles Center
07:04PM 32.7633 -114.8606 87° East 302 348 7,300 -1,680 Descending Los Angeles Center
07:05PM 32.6566 -114.6060 331° Northwest  Level Estimated
07:05PM 32.7628 -114.8306 91° East 299 344 6,800  Level Los Angeles Center
07:05PM 32.7636 -114.7719 89° East 280 322 5,600 -2,100 Descending Los Angeles Center
07:06PM 32.7606 -114.7419 97° East 277 319 4,700 -2,280 Descending Los Angeles Center
07:07PM 32.7300 -114.6847 122° Southeast 254 292 3,100 -2,160 Descending Los Angeles Center
07:07PM 32.7075 -114.6794 169° South 245 282 2,500 -840 Descending Los Angeles Center
07:08PM 32.6772 -114.6786 179° South 186 214 2,300 -720 Descending Los Angeles Center
07:08PM 32.6675 -114.6664 133° Southeast 197 227 1,800 -1,440 Descending Los Angeles Center
07:09PM 32.6656 -114.6386 95° East 136 157 900 -1,260 Descending Los Angeles Center
07:09PM 32.6658 -114.6233 89° East 153 176 500 -540 Descending Los Angeles Center
07:10PM 32.6658 -114.5844 90° East 144 166 200 -300 Descending Los Angeles Center